createdAt,value
2023-04-28T00:02:08.049Z,101495.59
2023-04-28T00:05:08.163Z,101494.59
2023-04-28T00:08:17.346Z,101494.56
2023-04-28T00:11:05.526Z,101491.19
2023-04-28T00:14:11.997Z,101484.22
2023-04-28T00:17:08.962Z,101485.09
2023-04-28T00:19:56.004Z,101485.72
2023-04-28T00:22:42.882Z,101485.69
2023-04-28T00:25:30.944Z,101378.81
2023-04-28T00:28:30.509Z,101488.34
2023-04-28T00:31:20.613Z,101482.22
2023-04-28T00:34:07.366Z,101486.44
2023-04-28T00:36:54.245Z,101484.69
2023-04-28T00:39:47.146Z,101479.34
2023-04-28T00:42:35.298Z,101486.28
2023-04-28T00:45:35.290Z,101480.28
2023-04-28T00:48:22.656Z,101479.22
2023-04-28T00:51:13.229Z,101474.25
2023-04-28T00:54:01.936Z,101479.44
2023-04-28T00:56:49.055Z,101473.06
2023-04-28T00:59:37.789Z,101470.44
2023-04-28T01:02:25.091Z,101465.97
2023-04-28T01:05:13.434Z,101480.78
2023-04-28T01:07:59.993Z,101466.81
2023-04-28T01:10:46.637Z,101468.78
2023-04-28T01:13:48.194Z,101473.00
2023-04-28T01:16:38.455Z,101469.56
2023-04-28T01:19:26.179Z,101465.97
2023-04-28T01:22:15.397Z,101468.47
2023-04-28T01:25:05.551Z,101463.31
2023-04-28T01:27:53.414Z,101458.97
2023-04-28T01:30:39.823Z,101463.31
2023-04-28T01:33:27.006Z,101466.78
2023-04-28T01:36:13.872Z,101462.41
2023-04-28T01:39:00.859Z,101463.28
2023-04-28T01:41:48.753Z,101461.56
2023-04-28T01:44:35.546Z,101466.69
2023-04-28T01:47:22.266Z,101462.38
2023-04-28T01:50:09.423Z,101464.75
2023-04-28T01:52:56.193Z,101460.31
2023-04-28T01:55:42.879Z,101447.28
2023-04-28T01:58:31.027Z,101453.50
2023-04-28T02:01:17.883Z,101447.34
2023-04-28T02:04:04.716Z,101445.59
2023-04-28T02:06:58.813Z,101448.94
2023-04-28T02:09:47.085Z,101443.72
2023-04-28T02:12:33.553Z,101445.72
2023-04-28T02:15:21.902Z,101444.16
2023-04-28T02:18:08.609Z,101445.81
2023-04-28T02:20:59.411Z,101445.78
2023-04-28T02:23:47.748Z,101442.34
2023-04-28T02:26:44.619Z,101437.75
2023-04-28T02:29:36.015Z,101434.28
2023-04-28T02:32:27.178Z,101449.31
2023-04-28T02:35:14.359Z,101428.09
2023-04-28T02:38:01.202Z,101444.00
2023-04-28T02:40:47.940Z,101442.22
2023-04-28T02:43:35.271Z,101434.31
2023-04-28T02:46:26.186Z,101436.25
2023-04-28T02:49:15.609Z,101423.91
2023-04-28T02:52:03.341Z,101426.50
2023-04-28T02:54:55.438Z,101422.16
2023-04-28T02:57:43.052Z,101421.25
2023-04-28T03:00:31.477Z,101425.72
2023-04-28T03:03:18.576Z,101421.16
2023-04-28T03:06:07.560Z,101416.09
2023-04-28T03:08:55.622Z,101416.97
2023-04-28T03:11:42.820Z,101419.44
2023-04-28T03:14:29.605Z,101413.47
2023-04-28T03:17:16.581Z,101415.28
2023-04-28T03:20:05.084Z,101412.78
2023-04-28T03:22:53.421Z,101399.63
2023-04-28T03:25:40.035Z,101408.44
2023-04-28T03:28:27.000Z,101402.44
2023-04-28T03:31:13.746Z,101398.44
2023-04-28T03:34:00.691Z,101402.66
2023-04-28T03:36:47.560Z,101407.84
2023-04-28T03:39:44.461Z,101393.94
2023-04-28T03:42:31.266Z,101402.72
2023-04-28T03:45:27.877Z,101406.19
2023-04-28T03:48:14.702Z,101397.50
2023-04-28T03:51:01.393Z,101391.38
2023-04-28T03:53:48.207Z,101401.09
2023-04-28T03:56:48.131Z,101394.91
2023-04-28T03:59:35.823Z,101398.41
2023-04-28T04:02:22.927Z,101389.72
2023-04-28T04:05:09.963Z,101392.59
2023-04-28T04:07:57.035Z,101388.19
2023-04-28T04:10:43.887Z,101381.06
2023-04-28T04:13:32.270Z,101382.97
2023-04-28T04:16:19.384Z,101380.25
2023-04-28T04:19:06.599Z,101383.75
2023-04-28T04:22:04.577Z,101382.91
2023-04-28T04:24:51.291Z,101383.00
2023-04-28T04:27:38.203Z,101388.31
2023-04-28T04:30:26.475Z,101385.81
2023-04-28T04:33:13.247Z,101386.00
2023-04-28T04:36:00.171Z,101383.63
2023-04-28T04:38:47.697Z,101380.19
2023-04-28T04:41:38.528Z,101373.22
2023-04-28T04:44:46.949Z,101380.19
2023-04-28T04:47:49.485Z,101374.97
2023-04-28T04:50:38.521Z,101369.69
2023-04-28T04:53:27.282Z,101380.19
2023-04-28T04:56:15.955Z,101373.16
2023-04-28T04:59:05.468Z,101360.88
2023-04-28T05:02:04.325Z,101367.09
2023-04-28T05:05:01.754Z,101355.53
2023-04-28T05:07:56.736Z,101352.84
2023-04-28T05:10:43.442Z,101338.91
2023-04-28T05:13:31.787Z,101341.59
2023-04-28T05:16:23.624Z,101337.59
2023-04-28T05:19:31.593Z,101346.25
2023-04-28T05:22:20.044Z,101343.28
2023-04-28T05:25:09.257Z,101330.53
2023-04-28T05:27:57.899Z,101335.22
2023-04-28T05:30:45.810Z,101325.53
2023-04-28T05:33:33.286Z,101329.44
2023-04-28T05:36:20.161Z,101332.69
2023-04-28T05:39:08.353Z,101331.56
2023-04-28T05:41:54.918Z,101333.78
2023-04-28T05:44:43.081Z,101324.97
2023-04-28T05:47:31.335Z,101328.22
2023-04-28T05:50:18.149Z,101325.34
2023-04-28T05:53:05.651Z,101318.53
2023-04-28T05:55:53.548Z,101324.56
2023-04-28T05:58:41.665Z,101317.47
2023-04-28T06:01:28.747Z,101311.75
2023-04-28T06:04:15.979Z,101319.78
2023-04-28T06:07:06.316Z,101316.38
2023-04-28T06:09:53.716Z,101310.00
2023-04-28T06:12:41.843Z,101303.69
2023-04-28T06:15:29.527Z,101302.78
2023-04-28T06:18:16.935Z,101298.63
2023-04-28T06:21:03.854Z,101299.81
2023-04-28T06:23:50.498Z,101283.28
2023-04-28T06:26:37.279Z,101287.53
2023-04-28T06:29:25.552Z,101284.66
2023-04-28T06:32:12.458Z,101271.47
2023-04-28T06:34:59.034Z,101278.53
2023-04-28T06:37:46.481Z,101271.28
2023-04-28T06:40:34.797Z,101275.25
2023-04-28T06:43:22.486Z,101277.94
2023-04-28T06:46:30.239Z,101271.75
2023-04-28T06:49:17.335Z,101261.41
2023-04-28T06:52:04.123Z,101260.63
2023-04-28T06:54:51.406Z,101268.25
2023-04-28T06:57:39.069Z,101263.00
2023-04-28T07:00:26.074Z,101260.09
2023-04-28T07:03:14.303Z,101261.00
2023-04-28T07:06:01.207Z,101264.03
2023-04-28T07:08:48.099Z,101260.53
2023-04-28T07:11:34.858Z,101252.28
2023-04-28T07:14:21.720Z,101250.22
2023-04-28T07:17:09.007Z,101245.47
2023-04-28T07:19:57.213Z,101247.56
2023-04-28T07:22:43.674Z,101246.63
2023-04-28T07:25:30.528Z,101240.06
2023-04-28T07:28:17.388Z,101238.00
2023-04-28T07:31:04.175Z,101233.88
2023-04-28T07:33:50.988Z,101235.44
2023-04-28T07:36:39.329Z,101232.94
2023-04-28T07:39:25.886Z,101225.63
2023-04-28T07:42:12.951Z,101225.66
2023-04-28T07:44:59.581Z,101229.91
2023-04-28T07:47:46.372Z,101221.41
2023-04-28T07:50:33.070Z,101211.06
2023-04-28T07:53:21.340Z,101213.81
2023-04-28T07:56:08.126Z,101218.72
2023-04-28T07:58:54.560Z,101210.63
2023-04-28T08:01:41.463Z,101215.25
2023-04-28T08:04:28.571Z,101210.50
2023-04-28T08:07:15.718Z,101203.94
2023-04-28T08:10:03.637Z,101201.13
2023-04-28T08:12:50.266Z,101195.09
2023-04-28T08:15:37.149Z,101196.81
2023-04-28T08:18:24.011Z,101192.66
2023-04-28T08:21:11.266Z,101194.03
2023-04-28T08:23:57.634Z,101189.97
2023-04-28T08:26:46.282Z,101185.09
2023-04-28T08:29:33.744Z,101181.34
2023-04-28T08:32:20.405Z,101176.44
2023-04-28T08:35:08.085Z,101180.38
2023-04-28T08:37:54.804Z,101172.19
2023-04-28T08:40:42.919Z,101168.44
2023-04-28T08:43:31.206Z,101172.13
2023-04-28T08:46:19.578Z,101170.66
2023-04-28T08:49:08.971Z,101173.78
2023-04-28T08:52:00.315Z,101166.50
2023-04-28T08:54:50.358Z,101167.22
2023-04-28T08:57:44.763Z,101164.47
2023-04-28T09:00:32.802Z,101164.00
2023-04-28T09:03:19.856Z,101153.16
2023-04-28T09:06:06.492Z,101146.59
2023-04-28T09:08:53.773Z,101140.38
2023-04-28T09:11:52.197Z,101141.50
2023-04-28T09:14:39.810Z,101135.91
2023-04-28T09:17:27.951Z,101131.59
2023-04-28T09:20:21.025Z,101133.81
2023-04-28T09:23:16.060Z,101129.75
2023-04-28T09:26:04.740Z,101127.50
2023-04-28T09:28:51.997Z,101126.13
2023-04-28T09:31:40.868Z,101126.88
2023-04-28T09:34:45.442Z,101122.38
2023-04-28T09:37:32.827Z,101119.97
2023-04-28T09:40:20.710Z,101121.75
2023-04-28T09:43:24.629Z,101110.84
2023-04-28T09:46:11.246Z,101109.59
2023-04-28T09:49:03.228Z,101104.44
2023-04-28T09:51:51.341Z,101101.59
2023-04-28T09:54:38.337Z,101092.25
2023-04-28T09:57:25.396Z,101086.56
2023-04-28T10:00:12.633Z,101087.16
2023-04-28T10:03:00.244Z,101079.09
2023-04-28T10:05:47.464Z,101078.25
2023-04-28T10:08:36.101Z,101068.00
2023-04-28T10:11:23.016Z,101069.19
2023-04-28T10:14:10.029Z,101062.84
2023-04-28T10:17:00.445Z,101059.78
2023-04-28T10:19:48.204Z,101051.38
2023-04-28T10:22:52.661Z,101052.41
2023-04-28T10:25:43.684Z,101039.84
2023-04-28T10:28:31.082Z,101038.88
2023-04-28T10:31:20.868Z,101036.78
2023-04-28T10:34:29.560Z,101035.38
2023-04-28T10:37:19.061Z,101043.19
2023-04-28T10:40:34.180Z,101028.69
2023-04-28T10:43:40.288Z,101026.53
2023-04-28T10:46:26.978Z,101025.31
2023-04-28T10:49:13.716Z,101025.13
2023-04-28T10:52:00.577Z,101020.56
2023-04-28T10:55:33.712Z,101018.44
2023-04-28T10:58:34.067Z,101017.66
2023-04-28T11:01:30.889Z,101001.09
2023-04-28T11:04:18.368Z,101012.75
2023-04-28T11:07:13.910Z,101004.22
2023-04-28T11:10:00.634Z,101005.84
2023-04-28T11:13:20.620Z,101000.03
2023-04-28T11:16:08.107Z,101000.63
2023-04-28T11:19:00.198Z,100999.78
2023-04-28T11:21:48.274Z,101003.31
2023-04-28T11:24:35.033Z,100996.59
2023-04-28T11:27:25.302Z,100999.44
2023-04-28T11:30:22.341Z,100989.34
2023-04-28T11:33:10.525Z,100989.66
2023-04-28T11:35:59.156Z,100991.63
2023-04-28T11:38:49.514Z,100992.34
2023-04-28T11:41:37.350Z,100979.53
2023-04-28T11:44:25.501Z,100987.47
2023-04-28T11:47:11.974Z,100985.13
2023-04-28T11:49:58.990Z,100985.25
2023-04-28T11:52:53.804Z,100975.72
2023-04-28T11:55:40.464Z,100972.41
2023-04-28T11:58:27.973Z,100971.47
2023-04-28T12:01:15.845Z,100971.66
2023-04-28T12:04:03.477Z,100966.16
2023-04-28T12:07:00.373Z,100959.38
2023-04-28T12:09:49.554Z,100947.59
2023-04-28T12:12:49.013Z,100953.75
2023-04-28T12:15:42.186Z,100952.88
2023-04-28T12:18:28.786Z,100943.50
2023-04-28T12:21:22.752Z,100911.78
2023-04-28T12:24:17.385Z,100944.72
2023-04-28T12:27:21.884Z,100934.97
2023-04-28T12:30:26.579Z,100945.06
2023-04-28T12:33:25.016Z,100918.22
2023-04-28T12:36:12.213Z,100940.41
2023-04-28T12:38:59.282Z,100936.59
2023-04-28T12:41:45.822Z,100933.97
2023-04-28T12:44:38.271Z,100923.81
2023-04-28T12:47:25.201Z,100931.22
2023-04-28T12:50:12.118Z,100926.41
2023-04-28T12:52:58.764Z,100919.34
2023-04-28T12:55:45.380Z,100918.25
2023-04-28T12:58:32.312Z,100922.78
2023-04-28T13:01:20.509Z,100907.19
2023-04-28T13:04:07.306Z,100915.97
2023-04-28T13:06:54.500Z,100902.72
2023-04-28T13:09:43.007Z,100904.88
2023-04-28T13:12:30.118Z,100900.34
2023-04-28T13:15:18.670Z,100833.53
2023-04-28T13:18:08.175Z,100890.50
2023-04-28T13:20:54.778Z,100893.84
2023-04-28T13:23:42.833Z,100879.84
2023-04-28T13:26:30.386Z,100880.91
2023-04-28T13:29:18.030Z,100882.69
2023-04-28T13:32:05.613Z,100874.91
2023-04-28T13:34:54.132Z,100868.16
2023-04-28T13:37:45.802Z,100875.97
2023-04-28T13:40:33.761Z,100864.50
2023-04-28T13:43:20.337Z,100858.69
2023-04-28T13:46:08.658Z,100858.44
2023-04-28T13:48:56.023Z,100859.25
2023-04-28T13:51:45.715Z,100863.13
2023-04-28T13:54:32.256Z,100857.88
2023-04-28T13:57:19.184Z,100852.66
2023-04-28T14:00:07.447Z,100847.31
2023-04-28T14:02:54.399Z,100839.66
2023-04-28T14:05:48.886Z,100842.28
2023-04-28T14:08:37.702Z,100846.28
2023-04-28T14:11:24.575Z,100843.59
2023-04-28T14:14:11.224Z,100775.19
2023-04-28T14:16:57.978Z,100826.16
2023-04-28T14:19:45.574Z,100828.94
2023-04-28T14:22:32.064Z,100826.66
2023-04-28T14:25:20.326Z,100833.66
2023-04-28T14:28:06.984Z,100824.00
2023-04-28T14:30:54.769Z,100827.28
2023-04-28T14:33:41.703Z,100825.63
2023-04-28T14:36:28.734Z,100818.94
2023-04-28T14:39:15.305Z,100811.91
2023-04-28T14:42:04.001Z,100812.38
2023-04-28T14:44:51.729Z,100814.41
2023-04-28T14:47:40.461Z,100803.97
2023-04-28T14:50:27.231Z,100808.28
2023-04-28T14:53:13.920Z,100808.06
2023-04-28T14:56:14.722Z,100798.34
2023-04-28T14:59:06.120Z,100788.41
2023-04-28T15:01:53.055Z,100790.03
2023-04-28T15:04:40.061Z,100788.91
2023-04-28T15:07:31.302Z,100765.00
2023-04-28T15:10:18.519Z,100779.66
2023-04-28T15:13:05.158Z,100777.00
2023-04-28T15:15:53.249Z,100775.84
2023-04-28T15:18:40.033Z,100774.59
2023-04-28T15:21:28.641Z,100772.13
2023-04-28T15:24:15.820Z,100773.94
2023-04-28T15:27:04.131Z,100771.84
2023-04-28T15:29:50.772Z,100768.78
2023-04-28T15:32:38.897Z,100768.69
2023-04-28T15:35:25.399Z,100766.25
2023-04-28T15:38:12.225Z,100765.84
2023-04-28T15:40:59.019Z,100762.88
2023-04-28T15:43:46.249Z,100765.00
2023-04-28T15:46:33.141Z,100758.69
2023-04-28T15:49:21.637Z,100759.63
2023-04-28T15:52:08.163Z,100760.66
2023-04-28T15:54:55.773Z,100753.41
2023-04-28T15:57:42.933Z,100755.38
2023-04-28T16:00:29.385Z,100752.44
2023-04-28T16:03:16.245Z,100746.31
2023-04-28T16:06:04.652Z,100735.63
2023-04-28T16:08:51.206Z,100742.03
2023-04-28T16:11:38.673Z,100740.00
2023-04-28T16:14:25.241Z,100739.56
2023-04-28T16:17:12.028Z,100743.19
2023-04-28T16:19:58.714Z,100742.13
2023-04-28T16:22:47.374Z,100736.97
2023-04-28T16:25:34.205Z,100735.25
2023-04-28T16:28:21.085Z,100733.03
2023-04-28T16:31:08.055Z,100729.84
2023-04-28T16:33:55.355Z,100731.47
2023-04-28T16:36:42.317Z,100730.91
2023-04-28T16:39:30.323Z,100728.63
2023-04-28T16:42:16.720Z,100728.25
2023-04-28T16:45:03.721Z,100725.25
2023-04-28T16:47:50.518Z,100732.09
2023-04-28T16:50:39.106Z,100725.88
2023-04-28T16:53:27.012Z,100721.19
2023-04-28T16:56:15.246Z,100729.75
2023-04-28T16:59:01.987Z,100730.78
2023-04-28T17:01:49.074Z,100723.84
2023-04-28T17:04:37.225Z,100718.22
2023-04-28T17:07:25.610Z,100722.88
2023-04-28T17:10:12.429Z,100714.66
2023-04-28T17:13:00.663Z,100716.66
2023-04-28T17:15:54.548Z,100709.72
2023-04-28T17:18:41.459Z,100708.97
2023-04-28T17:21:28.816Z,100713.75
2023-04-28T17:24:15.096Z,100712.72
2023-04-28T17:27:01.915Z,100702.31
2023-04-28T17:29:51.971Z,100709.63
2023-04-28T17:32:39.162Z,100713.13
2023-04-28T17:35:25.890Z,100710.53
2023-04-28T17:38:12.392Z,100709.06
2023-04-28T17:40:59.219Z,100710.81
2023-04-28T17:43:46.075Z,100707.38
2023-04-28T17:46:34.354Z,100705.31
2023-04-28T17:49:21.003Z,100706.66
2023-04-28T17:52:07.748Z,100713.25
2023-04-28T17:54:54.493Z,100704.78
2023-04-28T17:57:41.302Z,100703.78
2023-04-28T18:00:27.929Z,100711.38
2023-04-28T18:03:16.354Z,100704.41
2023-04-28T18:06:04.893Z,100713.66
2023-04-28T18:08:51.501Z,100709.00
2023-04-28T18:11:38.707Z,100706.03
2023-04-28T18:14:25.893Z,100705.72
2023-04-28T18:17:12.505Z,100704.63
2023-04-28T18:20:00.705Z,100708.00
2023-04-28T18:22:47.276Z,100704.41
2023-04-28T18:25:34.014Z,100680.16
2023-04-28T18:28:20.740Z,100704.47
2023-04-28T18:31:07.771Z,100708.72
2023-04-28T18:33:55.303Z,100703.22
2023-04-28T18:36:43.175Z,100702.50
2023-04-28T18:39:29.985Z,100700.88
2023-04-28T18:42:16.908Z,100699.84
2023-04-28T18:45:04.518Z,100713.72
2023-04-28T18:47:51.259Z,100712.94
2023-04-28T18:50:37.905Z,100716.06
2023-04-28T18:53:26.083Z,100714.44
2023-04-28T18:56:13.230Z,100712.78
2023-04-28T18:58:59.807Z,100704.06
2023-04-28T19:01:46.610Z,100700.00
2023-04-28T19:04:33.514Z,100699.19
2023-04-28T19:07:20.267Z,100707.47
2023-04-28T19:10:09.613Z,100704.16
2023-04-28T19:12:57.505Z,100714.56
2023-04-28T19:15:44.296Z,100714.25
2023-04-28T19:18:31.954Z,100712.38
2023-04-28T19:21:18.872Z,100711.75
2023-04-28T19:24:05.549Z,100694.56
2023-04-28T19:26:54.765Z,100639.84
2023-04-28T19:29:42.586Z,100683.53
2023-04-28T19:32:29.980Z,100684.00
2023-04-28T19:35:16.667Z,100680.31
2023-04-28T19:38:03.456Z,100685.88
2023-04-28T19:40:50.746Z,100640.72
2023-04-28T19:43:38.835Z,100680.97
2023-04-28T19:46:25.931Z,100682.03
2023-04-28T19:49:12.822Z,100680.00
2023-04-28T19:51:59.424Z,100683.22
2023-04-28T19:54:46.219Z,100682.94
2023-04-28T19:57:33.029Z,100677.19
2023-04-28T20:00:21.793Z,100684.13
2023-04-28T20:03:08.545Z,100682.44
2023-04-28T20:05:54.966Z,100675.19
2023-04-28T20:08:41.827Z,100674.19
2023-04-28T20:11:28.732Z,100674.28
2023-04-28T20:14:15.383Z,100667.38
2023-04-28T20:17:05.228Z,100673.38
2023-04-28T20:19:52.794Z,100670.41
2023-04-28T20:22:40.825Z,100669.47
2023-04-28T20:25:27.883Z,100660.53
2023-04-28T20:28:14.531Z,100659.53
2023-04-28T20:31:01.486Z,100651.06
2023-04-28T20:33:49.278Z,100647.78
2023-04-28T20:36:36.250Z,100650.00
2023-04-28T20:39:22.791Z,100651.78
2023-04-28T20:42:10.174Z,100654.91
2023-04-28T20:44:56.889Z,100658.66
2023-04-28T20:47:43.746Z,100657.44
2023-04-28T20:50:33.429Z,100653.34
2023-04-28T20:53:20.163Z,100651.31
2023-04-28T20:56:07.358Z,100642.22
2023-04-28T20:58:55.445Z,100641.44
2023-04-28T21:01:42.255Z,100636.88
2023-04-28T21:04:29.099Z,100632.31
2023-04-28T21:07:17.672Z,100629.38
2023-04-28T21:10:04.426Z,100621.28
2023-04-28T21:12:51.021Z,100620.59
2023-04-28T21:15:38.258Z,100605.22
2023-04-28T21:18:24.962Z,100615.97
2023-04-28T21:21:12.233Z,100607.41
2023-04-28T21:24:00.433Z,100617.56
2023-04-28T21:26:47.690Z,100608.41
2023-04-28T21:29:35.030Z,100608.31
2023-04-28T21:32:21.975Z,100611.78
2023-04-28T21:35:09.572Z,100611.78
2023-04-28T21:37:56.540Z,100606.53
2023-04-28T21:40:49.657Z,100602.38
2023-04-28T21:43:40.461Z,100585.75
2023-04-28T21:46:27.824Z,100588.97
2023-04-28T21:49:14.843Z,100587.78
2023-04-28T21:52:01.716Z,100586.22
2023-04-28T21:54:48.507Z,100580.03
2023-04-28T21:57:37.056Z,100583.19
2023-04-28T22:00:24.118Z,100584.34
2023-04-28T22:03:11.714Z,100581.66
2023-04-28T22:05:58.289Z,100591.50
2023-04-28T22:08:45.019Z,100596.72
2023-04-28T22:11:32.356Z,100592.09
2023-04-28T22:14:38.796Z,100589.81
2023-04-28T22:17:27.550Z,100588.09
2023-04-28T22:20:15.090Z,100579.66
2023-04-28T22:23:01.853Z,100591.66
2023-04-28T22:25:48.506Z,100592.53
2023-04-28T22:28:35.452Z,100587.19
2023-04-28T22:31:23.473Z,100582.97
2023-04-28T22:34:10.464Z,100583.44
2023-04-28T22:36:57.326Z,100563.19
2023-04-28T22:39:44.153Z,100565.25
2023-04-28T22:42:30.830Z,100575.19
2023-04-28T22:45:17.726Z,100561.00
2023-04-28T22:48:06.463Z,100565.94
2023-04-28T22:50:53.184Z,100564.16
2023-04-28T22:53:39.902Z,100562.41
2023-04-28T22:56:26.853Z,100556.88
2023-04-28T22:59:13.650Z,100557.56
2023-04-28T23:02:00.618Z,100545.00
2023-04-28T23:04:48.443Z,100543.13
2023-04-28T23:07:35.144Z,100538.13
2023-04-28T23:10:21.770Z,100533.41
2023-04-28T23:13:08.486Z,100541.25
2023-04-28T23:15:59.102Z,100537.72
2023-04-28T23:18:45.805Z,100526.50
2023-04-28T23:21:33.868Z,100522.66
2023-04-28T23:24:20.560Z,100523.53
2023-04-28T23:27:07.488Z,100515.00
2023-04-28T23:29:54.487Z,100523.06
2023-04-28T23:32:42.468Z,100522.91
2023-04-28T23:35:29.121Z,100515.84
2023-04-28T23:38:17.066Z,100516.00
2023-04-28T23:41:06.544Z,100513.03
2023-04-28T23:43:53.149Z,100512.25
2023-04-28T23:46:39.818Z,100501.81
2023-04-28T23:49:26.604Z,100498.91
2023-04-28T23:52:13.415Z,100495.47
2023-04-28T23:55:01.576Z,100486.09
2023-04-28T23:57:48.423Z,100482.38
